Time;durP1;ratioP1;P1;durP2;ratioP2;P2;SDS_P1;SDS_P2;PMS_P1;PMS_P2;Temp;Humidity;BMP_temperature;BMP_pressure;BME280_temperature;BME280_humidity;BME280_pressure;Samples;Min_cycle;Max_cycle;Signal;HPM_P1;HPM_P2
2022/07/19 00:03:50;;;;;;;6.40;3.83;;;;;;;22.77;62.15;101749.88;20852137;28;20037;-61
2022/07/19 00:14:12;;;;;;;12.05;4.50;;;;;;;22.69;62.36;101744.50;20863203;28;20084;-61
2022/07/19 00:24:33;;;;;;;6.60;3.85;;;;;;;22.58;62.66;101741.25;20870070;28;20048;-61
2022/07/19 00:34:55;;;;;;;6.30;4.10;;;;;;;22.41;63.10;101747.41;20860394;28;20099;-61
2022/07/19 00:45:17;;;;;;;10.52;4.40;;;;;;;22.27;63.10;101739.09;20862367;28;20042;-61
2022/07/19 00:55:40;;;;;;;8.75;3.80;;;;;;;22.13;63.24;101726.31;20863535;28;20051;-60
2022/07/19 01:06:02;;;;;;;6.25;4.13;;;;;;;22.00;63.78;101725.84;20864817;28;20063;-61
2022/07/19 01:16:24;;;;;;;8.00;4.20;;;;;;;21.99;63.72;101734.78;20845179;28;20056;-61
2022/07/19 01:26:46;;;;;;;10.23;4.65;;;;;;;21.91;63.11;101737.38;20857064;28;20116;-60
2022/07/19 01:37:08;;;;;;;7.07;4.63;;;;;;;21.83;63.61;101734.66;20853255;28;20131;-61
2022/07/19 01:47:29;;;;;;;5.78;4.40;;;;;;;21.74;63.69;101735.53;20847979;28;20056;-61
2022/07/19 01:57:51;;;;;;;13.15;4.60;;;;;;;21.60;64.43;101725.41;20843264;28;20502;-61
2022/07/19 02:08:13;;;;;;;6.40;4.60;;;;;;;21.44;64.14;101727.81;20843898;28;20491;-61
2022/07/19 02:18:34;;;;;;;7.05;5.03;;;;;;;21.38;64.60;101733.72;20846586;28;20378;-61
2022/07/19 02:28:56;;;;;;;8.25;5.05;;;;;;;21.31;64.53;101716.69;20838850;28;20047;-61
2022/07/19 02:39:18;;;;;;;8.52;4.70;;;;;;;21.18;65.46;101732.09;20839072;28;20406;-61
2022/07/19 02:49:40;;;;;;;12.65;5.20;;;;;;;21.04;65.81;101729.06;20836142;28;20049;-61
2022/07/19 03:00:04;;;;;;;7.45;4.90;;;;;;;20.91;66.55;101728.53;20837573;28;20637;-61
2022/07/19 03:10:26;;;;;;;7.07;5.20;;;;;;;20.84;65.59;101717.66;20829123;28;20056;-61
2022/07/19 03:20:47;;;;;;;9.48;5.35;;;;;;;20.72;65.37;101729.38;20834081;28;20080;-62
2022/07/19 03:31:09;;;;;;;7.85;5.00;;;;;;;20.68;66.77;101721.84;20831703;28;20045;-61
2022/07/19 03:41:31;;;;;;;9.25;6.32;;;;;;;20.61;65.56;101726.88;20827870;28;20049;-61
2022/07/19 03:51:53;;;;;;;15.90;7.47;;;;;;;20.60;65.54;101725.22;20838005;28;20097;-61
2022/07/19 04:02:14;;;;;;;17.10;7.05;;;;;;;20.60;65.61;101719.91;20848011;28;20044;-61
2022/07/19 04:12:36;;;;;;;16.05;6.72;;;;;;;20.65;65.31;101728.28;20837763;28;20076;-61
2022/07/19 04:22:58;;;;;;;10.60;6.45;;;;;;;20.71;65.31;101724.22;20824914;28;20056;-61
2022/07/19 04:33:20;;;;;;;13.30;6.50;;;;;;;20.78;65.57;101731.50;20833093;28;20041;-60
2022/07/19 04:43:41;;;;;;;11.85;5.95;;;;;;;20.83;64.68;101729.25;20855462;28;20128;-61
2022/07/19 04:54:03;;;;;;;11.80;6.38;;;;;;;20.95;64.61;101720.19;20841879;28;20056;-61
2022/07/19 05:04:25;;;;;;;9.60;5.78;;;;;;;21.11;65.47;101727.53;20849457;28;20049;-60
2022/07/19 05:14:46;;;;;;;11.07;6.35;;;;;;;21.20;64.80;101730.16;20849056;28;20045;-61
2022/07/19 05:25:09;;;;;;;15.43;6.07;;;;;;;21.38;64.31;101728.41;20857379;28;20055;-61
2022/07/19 05:35:31;;;;;;;12.90;5.75;;;;;;;21.54;63.72;101725.97;20852513;28;20486;-62
2022/07/19 05:45:52;;;;;;;9.70;5.72;;;;;;;21.80;63.16;101729.63;20861170;28;20045;-62
2022/07/19 05:56:14;;;;;;;12.15;5.65;;;;;;;22.09;62.73;101736.41;20852533;28;20092;-62
2022/07/19 06:06:35;;;;;;;10.60;4.90;;;;;;;22.38;61.91;101746.88;20845237;28;20054;-62
2022/07/19 06:16:57;;;;;;;18.80;5.40;;;;;;;22.72;61.27;101746.84;20840770;28;20115;-61
2022/07/19 06:27:19;;;;;;;11.18;4.88;;;;;;;22.92;61.33;101747.50;20857474;28;20033;-62
2022/07/19 06:37:40;;;;;;;6.07;4.32;;;;;;;23.20;60.25;101752.53;20843209;28;20049;-62
2022/07/19 06:48:02;;;;;;;13.68;4.50;;;;;;;23.61;59.27;101751.75;20849246;28;20044;-62
2022/07/19 06:58:24;;;;;;;9.07;4.22;;;;;;;23.97;59.57;101742.59;20834259;28;20474;-62
2022/07/19 07:08:45;;;;;;;9.23;4.25;;;;;;;24.32;58.80;101739.66;20853333;28;20049;-62
2022/07/19 07:19:07;;;;;;;6.78;3.88;;;;;;;24.72;58.41;101741.41;20847144;28;20048;-62
2022/07/19 07:29:29;;;;;;;4.97;3.40;;;;;;;25.09;57.51;101720.31;20840826;28;20052;-63
2022/07/19 07:39:50;;;;;;;5.63;3.28;;;;;;;25.52;55.90;101714.53;20846176;28;20064;-63
2022/07/19 07:50:12;;;;;;;4.70;2.90;;;;;;;25.84;55.28;101714.41;20842387;28;20037;-63
2022/07/19 08:00:34;;;;;;;8.75;3.05;;;;;;;26.22;56.21;101702.78;20845176;28;20328;-62
2022/07/19 08:10:56;;;;;;;5.22;2.90;;;;;;;26.58;54.82;101705.56;20845489;28;20136;-63
2022/07/19 08:21:18;;;;;;;5.50;2.83;;;;;;;27.05;53.58;101706.13;20844460;28;20049;-63
2022/07/19 08:31:40;;;;;;;5.65;2.80;;;;;;;27.30;54.26;101702.16;20852002;28;20053;-63
2022/07/19 08:42:03;;;;;;;4.97;2.50;;;;;;;27.72;53.13;101696.97;20857029;28;20042;-62
2022/07/19 08:52:25;;;;;;;4.80;2.20;;;;;;;28.09;50.96;101688.72;20857854;28;20049;-63
2022/07/19 09:03:01;;;;;;;2.95;1.88;;;;;;;28.68;44.17;101689.06;20858418;28;20051;-63
2022/07/19 09:13:23;;;;;;;3.22;1.80;;;;;;;28.93;49.26;101679.59;20841371;28;20124;-63
2022/07/19 09:23:44;;;;;;;3.28;1.88;;;;;;;29.46;47.52;101676.19;20857110;28;20522;-63
2022/07/19 09:34:06;;;;;;;3.10;1.63;;;;;;;29.80;48.13;101678.81;20855225;28;20048;-63
2022/07/19 09:44:27;;;;;;;3.20;1.45;;;;;;;29.98;49.17;101658.41;20850881;28;20073;-63
2022/07/19 09:54:51;;;;;;;2.63;1.70;;;;;;;30.52;46.95;101651.00;20838495;28;20057;-63
2022/07/19 10:05:14;;;;;;;2.08;1.38;;;;;;;30.96;47.17;101668.16;20861748;28;20089;-63
2022/07/19 10:15:41;;;;;;;5.25;1.52;;;;;;;31.30;40.49;101649.00;20842043;28;20105;-63
2022/07/19 10:26:03;;;;;;;1.92;1.38;;;;;;;31.83;44.30;101639.66;20844705;28;20045;-63
2022/07/19 10:36:38;;;;;;;4.78;1.70;;;;;;;32.04;41.66;101629.31;20840696;28;20053;-63
2022/07/19 10:46:59;;;;;;;;;;;;;;;32.55;45.15;101617.28;20846491;28;20080;-63
2022/07/19 10:57:36;;;;;;;3.67;1.50;;;;;;;32.82;35.81;101620.59;20843311;28;20373;-63
2022/07/19 11:07:58;;;;;;;5.40;1.80;;;;;;;33.52;41.19;101607.25;20839734;28;20041;-63
2022/07/19 11:18:20;;;;;;;2.33;1.60;;;;;;;33.89;42.88;101604.22;20842936;28;20394;-64
2022/07/19 11:28:44;;;;;;;2.08;1.38;;;;;;;34.22;42.70;101604.56;20822060;28;20060;-64
2022/07/19 11:39:06;;;;;;;;;;;;;;;34.67;39.53;101592.94;20833785;28;20045;-62
2022/07/19 11:49:38;;;;;;;1.23;1.13;;;;;;;35.08;30.38;101583.81;20830061;28;19921;-62
2022/07/19 11:59:59;;;;;;;;;;;;;;;35.29;39.81;101577.75;20821252;28;20053;-63
2022/07/19 12:10:44;;;;;;;;;;;;;;;35.43;42.92;101566.34;20833544;28;19921;-63
2022/07/19 12:21:21;;;;;;;1.75;1.20;;;;;;;35.42;30.73;101553.03;20829704;28;19943;-63
2022/07/19 12:31:44;;;;;;;;;;;;;;;35.20;42.03;101539.31;20820478;28;20049;-63
2022/07/19 12:42:06;;;;;;;;;;;;;;;34.87;43.18;101528.31;20831856;28;19921;-63
2022/07/19 12:52:28;;;;;;;;;;;;;;;34.69;39.15;101528.47;20818686;28;19920;-60
2022/07/19 13:02:50;;;;;;;;;;;;;;;34.61;44.52;101530.72;20830450;28;20310;-60
2022/07/19 13:13:12;;;;;;;;;;;;;;;34.61;41.15;101523.44;20848482;28;19927;-62
2022/07/19 13:23:33;;;;;;;;;;;;;;;34.56;43.24;101514.34;20849276;28;20445;-62
2022/07/19 13:33:55;;;;;;;;;;;;;;;34.52;42.13;101511.25;20853639;28;19924;-61
2022/07/19 13:44:17;;;;;;;;;;;;;;;34.43;42.70;101498.31;20862496;28;19921;-62
2022/07/19 13:54:39;;;;;;;;;;;;;;;34.64;37.71;101484.97;20838502;28;19921;-63
2022/07/19 14:05:00;;;;;;;;;;;;;;;34.59;43.19;101482.19;20832757;28;19924;-61
2022/07/19 14:15:22;;;;;;;;;;;;;;;34.48;37.34;101465.09;20825998;28;19929;-62
2022/07/19 14:25:43;;;;;;;;;;;;;;;34.70;41.30;101462.34;20820053;28;20286;-62
2022/07/19 14:36:19;;;;;;;;;;;;;;;34.62;44.52;101449.19;20822066;28;20016;-63
2022/07/19 14:46:41;;;;;;;;;;;;;;;34.54;43.36;101435.16;20828396;28;19921;-63
2022/07/19 14:57:02;;;;;;;;;;;;;;;34.70;39.21;101424.41;20823767;28;19947;-60
2022/07/19 15:07:25;;;;;;;3.70;1.60;;;;;;;34.85;43.02;101421.97;20830490;28;20325;-63
2022/07/19 15:17:46;;;;;;;;;;;;;;;34.99;43.62;101412.47;20833376;28;20049;-63
2022/07/19 15:28:08;;;;;;;;;;;;;;;34.89;42.68;101406.88;20811451;28;19925;-62
2022/07/19 15:38:29;;;;;;;;;;;;;;;34.81;43.46;101401.84;20826630;28;19944;-63
2022/07/19 15:48:51;;;;;;;3.80;1.60;;;;;;;35.16;41.64;101386.25;20824350;28;20300;-62
2022/07/19 15:59:13;;;;;;;3.22;1.90;;;;;;;35.21;42.43;101375.50;20823395;28;20509;-62
2022/07/19 16:09:35;;;;;;;2.92;1.90;;;;;;;35.05;41.90;101367.28;20827004;28;20416;-62
2022/07/19 16:19:58;;;;;;;1.75;1.50;;;;;;;35.45;41.67;101352.53;20821396;28;20041;-61
2022/07/19 16:30:19;;;;;;;;;;;;;;;35.92;40.64;101342.94;20816901;28;20055;-60
2022/07/19 16:40:41;;;;;;;;;;;;;;;36.31;42.02;101339.09;20826493;28;19931;-61
2022/07/19 16:51:03;;;;;;;3.60;2.00;;;;;;;36.47;40.32;101330.06;20838952;28;19921;-61
2022/07/19 17:01:25;;;;;;;4.90;1.70;;;;;;;36.52;42.73;101328.22;20842833;28;20046;-61
2022/07/19 17:11:46;;;;;;;3.45;1.60;;;;;;;36.43;40.40;101318.03;20845001;28;20414;-61
2022/07/19 17:22:13;;;;;;;5.05;1.63;;;;;;;36.41;40.57;101326.44;20838495;28;20445;-61
2022/07/19 17:32:35;;;;;;;4.85;2.53;;;;;;;36.32;42.68;101316.28;20841072;28;20137;-61
2022/07/19 17:42:58;;;;;;;2.88;2.00;;;;;;;36.08;42.98;101309.50;20833051;28;20052;-61
2022/07/19 17:53:20;;;;;;;14.10;3.95;;;;;;;35.72;44.88;101304.63;20840936;28;20041;-60
2022/07/19 18:03:42;;;;;;;7.10;1.90;;;;;;;35.44;44.15;101306.66;20833867;28;20502;-60
2022/07/19 18:14:04;;;;;;;3.35;1.75;;;;;;;35.13;46.20;101299.94;20835041;28;20034;-60
2022/07/19 18:24:26;;;;;;;5.63;2.28;;;;;;;34.75;45.53;101302.53;20840143;28;20668;-61
2022/07/19 18:34:47;;;;;;;6.25;1.90;;;;;;;34.41;46.18;101301.84;20841157;28;20491;-60
2022/07/19 18:45:10;;;;;;;4.53;1.90;;;;;;;34.08;44.21;101299.00;20846369;28;20410;-60
2022/07/19 18:55:32;;;;;;;5.20;1.88;;;;;;;33.76;44.38;101300.50;20840189;28;20052;-61
2022/07/19 19:05:53;;;;;;;5.80;2.08;;;;;;;33.43;46.85;101311.09;20840970;28;20049;-60
2022/07/19 19:16:15;;;;;;;4.63;2.33;;;;;;;33.09;44.38;101298.31;20843869;28;20068;-60
2022/07/19 19:26:37;;;;;;;5.65;2.15;;;;;;;32.71;45.15;101297.91;20836856;28;20434;-60
2022/07/19 19:36:59;;;;;;;4.47;2.00;;;;;;;32.40;46.30;101299.19;20834414;28;20379;-60
2022/07/19 19:47:21;;;;;;;4.07;1.90;;;;;;;32.11;47.84;101297.28;20838543;28;20439;-60
2022/07/19 19:57:43;;;;;;;2.75;1.70;;;;;;;31.78;45.86;101297.66;20837962;28;20057;-60
2022/07/19 20:08:05;;;;;;;5.80;1.90;;;;;;;31.55;45.28;101302.84;20833219;28;20745;-60
2022/07/19 20:18:27;;;;;;;5.97;2.20;;;;;;;31.25;47.25;101298.38;20824488;28;20383;-60
2022/07/19 20:28:48;;;;;;;8.90;2.47;;;;;;;31.04;46.97;101303.34;20848687;28;20045;-60
2022/07/19 20:39:11;;;;;;;8.27;2.50;;;;;;;30.72;46.67;101297.09;20850237;28;20071;-60
2022/07/19 20:49:33;;;;;;;8.23;2.33;;;;;;;30.46;48.33;101289.19;20848466;28;20042;-60
2022/07/19 20:59:54;;;;;;;6.70;2.38;;;;;;;30.28;48.64;101300.88;20849422;28;20037;-60
2022/07/19 21:10:16;;;;;;;4.40;2.40;;;;;;;30.14;47.66;101293.91;20852953;28;20046;-60
2022/07/19 21:20:37;;;;;;;5.75;2.30;;;;;;;29.89;47.93;101296.47;20849011;28;20394;-60
2022/07/19 21:30:59;;;;;;;4.57;2.67;;;;;;;29.67;47.84;101296.97;20858341;28;20083;-60
2022/07/19 21:41:21;;;;;;;4.63;2.40;;;;;;;29.56;47.35;101302.94;20850204;28;20064;-60
2022/07/19 21:51:42;;;;;;;3.17;2.38;;;;;;;29.37;48.02;101301.13;20848984;28;20041;-60
2022/07/19 22:02:04;;;;;;;3.80;1.98;;;;;;;29.24;46.94;101306.50;20858151;28;20053;-60
2022/07/19 22:12:25;;;;;;;;;;;;;;;29.14;47.99;101305.25;20846524;28;20053;-60
2022/07/19 22:22:47;;;;;;;;;;;;;;;28.97;46.46;101310.19;20849079;28;19925;-60
2022/07/19 22:33:08;;;;;;;;;;;;;;;28.81;47.77;101305.22;20844501;28;20270;-60
2022/07/19 22:43:30;;;;;;;;;;;;;;;28.72;47.41;101298.38;20844295;28;19921;-61
2022/07/19 22:53:51;;;;;;;;;;;;;;;28.58;47.73;101294.00;20849661;28;19931;-61
2022/07/19 23:04:13;;;;;;;4.60;2.38;;;;;;;28.42;46.26;101293.59;20839984;28;19921;-61
2022/07/19 23:14:35;;;;;;;3.85;2.10;;;;;;;28.26;47.94;101298.47;20844742;28;20137;-61
2022/07/19 23:24:57;;;;;;;3.10;1.88;;;;;;;28.16;46.90;101287.25;20842258;28;20053;-61
2022/07/19 23:35:18;;;;;;;3.80;2.00;;;;;;;28.01;47.57;101281.22;20841138;28;20458;-61
2022/07/19 23:45:41;;;;;;;6.80;2.30;;;;;;;27.84;46.88;101274.53;20840207;28;20045;-60
2022/07/19 23:56:03;;;;;;;4.85;2.05;;;;;;;27.72;45.57;101276.13;20842030;28;20123;-60
